Time;durP1;ratioP1;P1;durP2;ratioP2;P2;SDS_P1;SDS_P2;PMS_P1;PMS_P2;Temp;Humidity;BMP_temperature;BMP_pressure;BME280_temperature;BME280_humidity;BME280_pressure;Samples;Min_cycle;Max_cycle;Signal;HPM_P1;HPM_P2
2023/07/13 00:02:22;;;;;;;11.35;9.07;;;21.60;99.90;;;;;;5009184;28;20291;-72
2023/07/13 00:05:11;;;;;;;9.80;8.70;;;21.50;99.90;;;;;;5017777;28;20642;-73
2023/07/13 00:08:00;;;;;;;9.98;8.40;;;21.60;99.90;;;;;;5019249;28;20312;-73
2023/07/13 00:10:49;;;;;;;11.38;8.15;;;21.40;99.90;;;;;;5002438;28;20222;-74
2023/07/13 00:13:39;;;;;;;10.88;8.73;;;21.40;99.90;;;;;;5028299;28;20244;-72
2023/07/13 00:16:27;;;;;;;13.38;8.90;;;21.50;99.90;;;;;;5014921;28;20482;-74
2023/07/13 00:19:18;;;;;;;10.75;9.55;;;21.40;99.90;;;;;;5003813;28;20308;-72
2023/07/13 00:22:10;;;;;;;10.65;9.48;;;21.40;99.90;;;;;;5016911;28;20721;-73
2023/07/13 00:25:00;;;;;;;12.27;9.02;;;21.40;99.90;;;;;;5008703;28;20228;-73
2023/07/13 00:27:49;;;;;;;10.05;8.85;;;21.40;99.90;;;;;;5010517;28;20267;-72
2023/07/13 00:30:38;;;;;;;11.27;9.38;;;21.50;99.90;;;;;;5016937;28;20229;-71
2023/07/13 00:33:28;;;;;;;11.63;9.07;;;21.40;99.90;;;;;;5004281;28;21105;-73
2023/07/13 00:36:21;;;;;;;10.88;9.02;;;21.50;99.90;;;;;;5013542;28;20600;-73
2023/07/13 00:39:10;;;;;;;10.57;9.07;;;21.40;99.90;;;;;;5034731;28;20229;-73
2023/07/13 00:41:59;;;;;;;12.13;8.75;;;21.40;99.90;;;;;;5014097;28;20650;-73
2023/07/13 00:45:04;;;;;;;10.77;9.13;;;21.40;99.90;;;;;;5028261;28;20234;-73
2023/07/13 00:47:53;;;;;;;11.93;9.25;;;21.30;99.90;;;;;;5001028;28;20634;-73
2023/07/13 00:50:43;;;;;;;10.48;8.50;;;21.30;99.90;;;;;;5003767;28;20237;-72
2023/07/13 00:53:35;;;;;;;10.98;8.93;;;21.30;99.90;;;;;;5003817;28;20218;-73
2023/07/13 00:56:24;;;;;;;10.68;9.25;;;21.30;99.90;;;;;;5015089;28;20288;-73
2023/07/13 00:59:15;;;;;;;11.10;9.15;;;21.40;99.90;;;;;;5030813;28;20433;-74
2023/07/13 01:02:05;;;;;;;14.85;9.63;;;21.40;99.90;;;;;;5028101;28;20305;-74
2023/07/13 01:04:54;;;;;;;15.50;10.20;;;21.40;99.90;;;;;;4999364;28;20324;-72
2023/07/13 01:07:45;;;;;;;13.75;9.80;;;21.40;99.90;;;;;;5009756;28;20229;-73
2023/07/13 01:10:38;;;;;;;10.68;9.60;;;21.40;99.90;;;;;;5000626;28;20233;-73
2023/07/13 01:13:27;;;;;;;11.70;9.48;;;21.40;99.90;;;;;;5018881;28;20221;-74
2023/07/13 01:16:24;;;;;;;11.57;9.25;;;21.40;99.90;;;;;;5010294;28;20223;-73
2023/07/13 01:19:25;;;;;;;11.95;9.40;;;21.40;99.90;;;;;;5003474;28;20217;-73
2023/07/13 01:22:17;;;;;;;10.95;9.68;;;21.40;99.90;;;;;;5015909;28;20709;-73
2023/07/13 01:25:08;;;;;;;11.48;9.50;;;21.30;99.90;;;;;;4990643;28;20241;-73
2023/07/13 01:27:57;;;;;;;10.65;9.52;;;21.40;99.90;;;;;;5005973;28;20217;-73
2023/07/13 01:30:46;;;;;;;13.30;9.52;;;21.40;99.90;;;;;;4993808;28;20299;-72
2023/07/13 01:33:38;;;;;;;10.25;9.23;;;21.40;99.90;;;;;;5026182;28;20600;-74
2023/07/13 01:36:27;;;;;;;11.13;9.50;;;21.40;99.90;;;;;;5004368;28;20229;-73
2023/07/13 01:39:18;;;;;;;13.32;9.48;;;21.10;99.90;;;;;;5024557;28;20309;-74
2023/07/13 01:42:08;;;;;;;9.93;8.80;;;21.00;99.90;;;;;;5008465;28;20225;-74
2023/07/13 01:44:57;;;;;;;11.68;9.98;;;21.00;99.90;;;;;;5011556;28;20233;-74
2023/07/13 01:47:46;;;;;;;13.00;9.65;;;21.10;99.90;;;;;;5013326;28;20213;-74
2023/07/13 01:50:35;;;;;;;13.93;10.48;;;21.10;99.90;;;;;;5005902;28;20331;-75
2023/07/13 01:53:24;;;;;;;11.80;10.00;;;21.20;99.90;;;;;;5012369;28;20266;-73
2023/07/13 01:56:14;;;;;;;13.80;10.02;;;21.10;99.90;;;;;;5005836;28;20222;-75
2023/07/13 01:59:03;;;;;;;11.93;10.48;;;21.10;99.90;;;;;;4994925;28;20236;-73
2023/07/13 02:01:52;;;;;;;11.82;9.90;;;21.00;99.90;;;;;;5002073;28;20679;-74
2023/07/13 02:04:44;;;;;;;14.18;10.35;;;21.10;99.90;;;;;;5006799;28;20232;-74
2023/07/13 02:07:33;;;;;;;12.95;9.88;;;21.10;99.90;;;;;;5015300;28;20318;-75
2023/07/13 02:10:22;;;;;;;12.93;10.60;;;21.00;99.90;;;;;;5017430;28;20328;-75
2023/07/13 02:13:12;;;;;;;12.82;10.32;;;21.10;99.90;;;;;;5011664;28;20229;-75
2023/07/13 02:16:02;;;;;;;11.82;10.63;;;21.00;99.90;;;;;;4990383;28;20213;-75
2023/07/13 02:18:52;;;;;;;11.43;9.95;;;20.90;99.90;;;;;;5000178;28;20261;-74
2023/07/13 02:21:41;;;;;;;12.80;10.98;;;21.10;99.90;;;;;;5007317;28;20778;-76
2023/07/13 02:24:29;;;;;;;12.07;10.77;;;21.10;99.90;;;;;;5008906;28;20229;-75
2023/07/13 02:27:18;;;;;;;12.30;11.00;;;21.00;99.90;;;;;;5026027;28;20228;-74
2023/07/13 02:30:13;;;;;;;14.23;11.15;;;21.00;99.90;;;;;;5011367;28;20600;-74
2023/07/13 02:33:03;;;;;;;13.43;10.77;;;21.00;99.90;;;;;;5015283;28;20266;-75
2023/07/13 02:35:52;;;;;;;16.05;11.32;;;21.00;99.90;;;;;;4997797;28;20250;-75
2023/07/13 02:38:40;;;;;;;12.60;11.20;;;20.90;99.90;;;;;;5016699;28;20237;-73
2023/07/13 02:41:30;;;;;;;13.85;11.43;;;21.10;99.90;;;;;;5014461;28;20218;-72
2023/07/13 02:44:19;;;;;;;15.25;11.45;;;21.00;99.90;;;;;;5017682;28;20233;-72
2023/07/13 02:47:09;;;;;;;12.68;11.05;;;21.10;99.90;;;;;;5015486;28;21395;-72
2023/07/13 02:49:59;;;;;;;15.02;10.95;;;21.00;99.90;;;;;;5000271;28;20230;-72
2023/07/13 02:52:48;;;;;;;13.73;11.13;;;21.00;99.90;;;;;;5005875;28;20316;-73
2023/07/13 02:55:38;;;;;;;14.25;12.15;;;20.90;99.90;;;;;;5005327;28;20218;-72
2023/07/13 02:58:27;;;;;;;14.57;12.00;;;20.80;99.90;;;;;;5015981;28;20226;-73
2023/07/13 03:01:18;;;;;;;14.23;11.68;;;20.70;99.90;;;;;;5003330;28;20544;-73
2023/07/13 03:04:09;;;;;;;14.20;11.80;;;20.90;99.90;;;;;;5031420;28;20704;-74
2023/07/13 03:06:59;;;;;;;12.45;11.00;;;20.90;99.90;;;;;;4997419;28;20256;-74
2023/07/13 03:09:57;;;;;;;14.13;11.52;;;21.00;99.90;;;;;;5000544;28;20229;-75
2023/07/13 03:12:52;;;;;;;16.55;12.23;;;20.90;99.90;;;;;;5002325;28;20218;-75
2023/07/13 03:15:49;;;;;;;15.32;11.95;;;20.90;99.90;;;;;;5014588;28;20222;-75
2023/07/13 03:18:39;;;;;;;18.52;12.88;;;21.00;99.90;;;;;;5009982;28;20236;-74
2023/07/13 03:21:33;;;;;;;14.20;12.48;;;20.90;99.90;;;;;;5020314;28;20307;-74
2023/07/13 03:24:25;;;;;;;16.13;12.50;;;20.80;99.90;;;;;;5009665;28;20237;-74
2023/07/13 03:27:16;;;;;;;14.48;12.27;;;20.70;99.90;;;;;;5013151;28;20232;-73
2023/07/13 03:30:06;;;;;;;15.48;12.32;;;20.80;99.90;;;;;;5002606;28;20217;-72
2023/07/13 03:32:56;;;;;;;14.00;12.45;;;20.90;99.90;;;;;;5015823;28;20225;-74
2023/07/13 03:35:47;;;;;;;14.25;12.13;;;20.80;99.90;;;;;;4992897;28;20228;-73
2023/07/13 03:38:37;;;;;;;16.45;13.77;;;20.90;99.90;;;;;;5019697;28;20238;-73
2023/07/13 03:41:27;;;;;;;15.40;13.13;;;21.00;99.90;;;;;;5003477;28;20478;-73
2023/07/13 03:44:17;;;;;;;16.85;13.27;;;21.00;99.90;;;;;;5035413;28;20221;-76
2023/07/13 03:47:10;;;;;;;14.98;12.90;;;21.00;99.90;;;;;;5011511;28;20249;-73
2023/07/13 03:49:59;;;;;;;14.20;12.73;;;21.10;99.90;;;;;;5022395;28;20226;-73
2023/07/13 03:52:48;;;;;;;14.98;13.02;;;21.10;99.90;;;;;;5003568;28;20247;-72
2023/07/13 03:55:39;;;;;;;17.15;12.80;;;21.10;99.90;;;;;;5016341;28;20229;-73
2023/07/13 03:58:31;;;;;;;19.35;13.80;;;21.00;99.90;;;;;;5003817;28;20885;-73
2023/07/13 04:01:28;;;;;;;14.75;12.82;;;21.20;99.90;;;;;;5020876;28;20226;-73
2023/07/13 04:04:18;;;;;;;18.83;13.05;;;21.30;99.90;;;;;;5004482;28;20963;-75
2023/07/13 04:07:08;;;;;;;18.15;12.52;;;21.50;99.90;;;;;;5006374;28;20244;-74
2023/07/13 04:10:01;;;;;;;18.08;12.90;;;21.60;99.90;;;;;;5013978;28;20225;-75
2023/07/13 04:12:53;;;;;;;15.75;12.82;;;21.60;99.90;;;;;;5008782;28;20217;-73
2023/07/13 04:15:43;;;;;;;15.60;12.98;;;21.90;99.90;;;;;;5012481;28;20217;-74
2023/07/13 04:18:32;;;;;;;18.15;13.82;;;22.10;99.90;;;;;;5001872;28;20222;-72
2023/07/13 04:21:22;;;;;;;14.90;12.77;;;22.10;99.90;;;;;;5012369;28;20218;-74
2023/07/13 04:24:10;;;;;;;14.57;13.00;;;22.20;99.90;;;;;;5002327;28;20732;-74
2023/07/13 04:27:00;;;;;;;13.95;11.75;;;22.30;99.90;;;;;;5001565;28;20788;-73
2023/07/13 04:29:50;;;;;;;15.63;12.40;;;22.40;99.90;;;;;;5008281;28;20222;-73
2023/07/13 04:32:39;;;;;;;15.52;13.40;;;22.70;99.90;;;;;;5013134;28;20221;-73
2023/07/13 04:35:28;;;;;;;14.82;13.25;;;22.70;99.90;;;;;;5003721;28;20233;-74
2023/07/13 04:38:17;;;;;;;15.10;13.25;;;22.60;99.90;;;;;;5014747;28;20327;-74
2023/07/13 04:41:08;;;;;;;15.25;13.10;;;22.50;99.90;;;;;;5007031;28;20311;-74
2023/07/13 04:43:57;;;;;;;15.63;12.93;;;22.40;99.90;;;;;;4997183;28;20218;-74
2023/07/13 04:46:47;;;;;;;14.82;13.15;;;22.40;99.90;;;;;;5017133;28;20256;-72
2023/07/13 04:49:36;;;;;;;16.13;13.20;;;22.50;99.90;;;;;;5019310;28;20246;-74
2023/07/13 04:52:26;;;;;;;15.88;13.55;;;22.50;99.90;;;;;;5018227;28;20459;-74
2023/07/13 04:55:15;;;;;;;15.05;12.80;;;22.50;99.90;;;;;;5013521;28;20308;-74
2023/07/13 04:58:04;;;;;;;18.70;13.27;;;22.50;99.90;;;;;;5014688;28;20654;-73
2023/07/13 05:00:53;;;;;;;17.23;13.20;;;22.50;99.90;;;;;;4987579;28;20312;-73
2023/07/13 05:03:44;;;;;;;18.35;13.68;;;22.60;99.90;;;;;;5005825;28;20233;-73
2023/07/13 05:06:33;;;;;;;17.00;14.10;;;22.50;99.90;;;;;;5007348;28;20237;-73
2023/07/13 05:09:22;;;;;;;19.08;14.10;;;22.50;99.90;;;;;;5006092;28;20231;-74
2023/07/13 05:12:11;;;;;;;18.17;13.82;;;22.70;99.90;;;;;;5004795;28;20225;-71
2023/07/13 05:15:01;;;;;;;17.13;14.88;;;22.60;99.90;;;;;;5008666;28;20258;-72
2023/07/13 05:17:50;;;;;;;17.27;14.63;;;22.50;99.90;;;;;;5019362;28;20221;-72
2023/07/13 05:20:40;;;;;;;19.30;14.45;;;22.50;99.90;;;;;;5014906;28;20229;-73
2023/07/13 05:23:30;;;;;;;16.23;14.27;;;22.50;99.90;;;;;;5014079;28;20217;-73
2023/07/13 05:26:20;;;;;;;16.95;14.80;;;22.40;99.90;;;;;;5007280;28;20305;-73
2023/07/13 05:29:09;;;;;;;22.25;14.65;;;22.60;99.90;;;;;;5029933;28;20225;-73
2023/07/13 05:31:58;;;;;;;22.60;15.23;;;22.70;99.90;;;;;;5006158;28;20566;-74
2023/07/13 05:34:47;;;;;;;19.48;15.82;;;22.70;99.90;;;;;;5008601;28;20246;-74
2023/07/13 05:37:39;;;;;;;17.73;14.82;;;22.80;99.90;;;;;;5009745;28;20234;-74
2023/07/13 05:40:27;;;;;;;16.35;13.82;;;22.80;99.90;;;;;;5015545;28;20217;-72
2023/07/13 05:43:16;;;;;;;16.50;14.15;;;23.00;99.90;;;;;;5008373;28;20225;-74
2023/07/13 05:46:08;;;;;;;15.27;13.60;;;23.30;99.90;;;;;;5009277;28;20225;-74
2023/07/13 05:48:57;;;;;;;18.88;14.02;;;23.50;99.90;;;;;;5007100;28;20248;-75
2023/07/13 05:51:46;;;;;;;19.08;13.80;;;23.90;99.90;;;;;;5013013;28;20258;-74
2023/07/13 05:54:36;;;;;;;16.05;14.07;;;24.00;99.90;;;;;;5002018;28;20914;-73
2023/07/13 05:57:25;;;;;;;14.07;12.48;;;23.70;99.90;;;;;;5020492;28;20240;-73
2023/07/13 06:00:15;;;;;;;15.23;12.73;;;23.60;99.90;;;;;;5016656;28;20681;-81
2023/07/13 06:03:04;;;;;;;14.48;12.98;;;23.70;99.90;;;;;;5001375;28;20589;-72
2023/07/13 06:05:53;;;;;;;15.50;12.02;;;23.60;99.90;;;;;;5004624;28;20225;-74
2023/07/13 06:08:43;;;;;;;16.63;12.30;;;23.70;99.90;;;;;;5008759;28;20222;-78
2023/07/13 06:11:34;;;;;;;13.65;11.82;;;23.60;99.90;;;;;;5018704;28;20229;-73
2023/07/13 06:14:23;;;;;;;17.00;11.88;;;23.50;99.90;;;;;;5017281;28;20234;-77
2023/07/13 06:17:12;;;;;;;14.75;11.40;;;23.60;99.90;;;;;;5008137;28;20733;-76
2023/07/13 06:20:01;;;;;;;14.35;11.38;;;23.60;99.90;;;;;;4997194;28;20226;-76
2023/07/13 06:22:50;;;;;;;13.35;11.23;;;23.60;99.90;;;;;;5014570;28;20233;-74
2023/07/13 06:25:39;;;;;;;10.85;9.77;;;23.70;99.90;;;;;;5013076;28;20710;-73
2023/07/13 06:28:29;;;;;;;13.35;10.13;;;23.70;99.90;;;;;;5010464;28;20233;-72
2023/07/13 06:31:18;;;;;;;13.85;10.13;;;24.10;99.90;;;;;;5017547;28;20224;-73
2023/07/13 06:34:07;;;;;;;9.27;8.38;;;24.40;99.90;;;;;;5003856;28;20451;-73
2023/07/13 06:36:57;;;;;;;10.55;8.35;;;24.10;99.90;;;;;;5008898;28;20717;-73
2023/07/13 06:39:45;;;;;;;7.78;6.97;;;24.50;99.90;;;;;;5014370;28;20233;-72
2023/07/13 06:42:34;;;;;;;10.23;7.60;;;25.70;99.90;;;;;;5009728;28;20241;-76
2023/07/13 06:45:25;;;;;;;12.85;7.97;;;26.90;99.90;;;;;;5002141;28;20555;-73
2023/07/13 06:48:14;;;;;;;11.80;7.80;;;26.70;99.90;;;;;;5021084;28;20624;-73
2023/07/13 06:51:03;;;;;;;9.57;6.45;;;26.10;99.90;;;;;;5019836;28;20321;-71
2023/07/13 06:53:52;;;;;;;11.82;7.18;;;26.60;99.90;;;;;;5024459;28;20226;-71
2023/07/13 06:56:44;;;;;;;11.88;7.20;;;26.50;99.90;;;;;;5014022;28;20301;-70
2023/07/13 06:59:33;;;;;;;9.65;6.45;;;26.20;99.90;;;;;;4999248;28;20233;-73
2023/07/13 07:02:23;;;;;;;8.48;5.90;;;25.80;99.90;;;;;;5022284;28;20225;-73
2023/07/13 07:05:12;;;;;;;10.85;6.28;;;25.90;99.90;;;;;;5013961;28;20743;-73
2023/07/13 07:08:01;;;;;;;8.05;7.10;;;25.80;99.90;;;;;;5011786;28;20274;-72
2023/07/13 07:10:53;;;;;;;7.25;5.80;;;26.00;99.90;;;;;;5018202;28;20253;-74
2023/07/13 07:13:43;;;;;;;7.68;5.07;;;27.00;99.90;;;;;;5009890;28;20244;-74
2023/07/13 07:16:32;;;;;;;5.20;3.95;;;27.70;99.90;;;;;;5020159;28;20217;-74
2023/07/13 07:19:23;;;;;;;5.25;3.70;;;27.50;99.70;;;;;;5028552;28;20582;-74
2023/07/13 07:22:11;;;;;;;6.97;4.13;;;27.10;99.90;;;;;;5020807;28;20249;-74
2023/07/13 07:25:01;;;;;;;5.13;3.35;;;27.40;98.30;;;;;;5015919;28;20229;-73
2023/07/13 07:27:50;;;;;;;4.43;3.53;;;27.40;96.60;;;;;;5007396;28;20234;-74
2023/07/13 07:30:43;;;;;;;5.65;4.40;;;27.30;96.90;;;;;;5007042;28;20217;-74
2023/07/13 07:33:35;;;;;;;7.13;4.47;;;27.80;97.60;;;;;;5004083;28;20210;-74
2023/07/13 07:36:25;;;;;;;5.88;5.28;;;28.00;98.70;;;;;;5012769;28;20356;-74
2023/07/13 07:39:17;;;;;;;6.95;4.95;;;28.20;98.50;;;;;;5020562;28;20245;-71
2023/07/13 07:42:07;;;;;;;6.20;4.35;;;28.50;98.70;;;;;;5016988;28;20356;-74
2023/07/13 07:44:57;;;;;;;7.00;4.32;;;28.50;97.70;;;;;;5001735;28;20562;-71
2023/07/13 07:47:46;;;;;;;7.45;4.53;;;28.80;96.50;;;;;;5011979;28;20728;-74
2023/07/13 07:50:35;;;;;;;5.28;4.60;;;29.20;96.90;;;;;;5016883;28;20322;-73
2023/07/13 07:53:25;;;;;;;7.50;4.55;;;29.70;96.60;;;;;;5007906;28;20229;-73
2023/07/13 07:56:16;;;;;;;5.65;3.53;;;29.70;94.90;;;;;;5008684;28;20324;-72
2023/07/13 07:59:07;;;;;;;7.72;3.63;;;29.90;92.60;;;;;;5018292;28;20218;-76
2023/07/13 08:02:00;;;;;;;3.70;3.10;;;30.00;92.30;;;;;;5017016;28;20224;-71
2023/07/13 08:04:52;;;;;;;7.30;3.67;;;30.30;91.10;;;;;;5012636;28;20216;-73
2023/07/13 08:07:44;;;;;;;4.03;3.58;;;30.50;91.00;;;;;;5012671;28;20228;-74
2023/07/13 08:10:37;;;;;;;6.75;3.70;;;30.80;92.00;;;;;;5001926;28;20231;-72
2023/07/13 08:13:25;;;;;;;6.07;3.70;;;30.90;89.70;;;;;;5014976;28;20225;-75
2023/07/13 08:16:14;;;;;;;4.70;3.53;;;31.30;90.70;;;;;;5015324;28;20889;-75
2023/07/13 08:19:04;;;;;;;5.90;3.55;;;30.90;89.70;;;;;;5017507;28;20233;-76
2023/07/13 08:21:53;;;;;;;3.85;3.45;;;31.20;90.10;;;;;;5018607;28;20274;-77
2023/07/13 08:24:44;;;;;;;6.28;4.30;;;31.90;88.60;;;;;;5025545;28;20688;-77
2023/07/13 08:27:34;;;;;;;6.93;4.95;;;31.70;88.90;;;;;;5015230;28;21080;-72
2023/07/13 08:30:23;;;;;;;5.22;4.72;;;31.30;88.20;;;;;;5003041;28;20890;-75
2023/07/13 08:33:12;;;;;;;5.72;4.47;;;31.00;91.20;;;;;;5021305;28;20236;-75
2023/07/13 08:36:01;;;;;;;7.18;4.47;;;31.40;92.90;;;;;;4994116;28;20716;-76
2023/07/13 08:38:50;;;;;;;4.57;4.18;;;31.70;90.70;;;;;;5020060;28;20224;-75
2023/07/13 08:41:39;;;;;;;5.45;4.10;;;31.40;91.00;;;;;;5003855;28;20635;-74
2023/07/13 08:44:38;;;;;;;6.90;4.32;;;31.50;89.00;;;;;;5026216;28;20226;-76
2023/07/13 08:47:31;;;;;;;5.55;4.95;;;31.60;88.40;;;;;;5014689;28;20956;-74
2023/07/13 08:50:26;;;;;;;5.32;4.90;;;32.10;91.00;;;;;;5019473;28;20221;-75
2023/07/13 08:53:17;;;;;;;6.53;4.90;;;32.10;88.30;;;;;;5020741;28;20235;-74
2023/07/13 08:56:15;;;;;;;7.55;4.43;;;31.60;90.70;;;;;;5002558;28;20280;-76
2023/07/13 08:59:10;;;;;;;5.55;4.63;;;31.00;90.30;;;;;;5005208;28;20229;-77
2023/07/13 09:02:18;;;;;;;5.13;4.40;;;30.20;91.10;;;;;;5001666;28;20229;-78
2023/07/13 09:05:13;;;;;;;6.18;4.78;;;29.80;90.80;;;;;;5027988;28;20926;-73
2023/07/13 09:08:15;;;;;;;6.72;4.90;;;30.20;91.30;;;;;;5001079;28;20249;-74
2023/07/13 09:11:14;;;;;;;5.03;4.50;;;30.90;92.20;;;;;;5015897;28;20223;-74
2023/07/13 09:14:34;;;;;;;5.75;4.35;;;31.50;91.30;;;;;;5021242;28;20766;-75
2023/07/13 09:17:28;;;;;;;5.68;5.18;;;31.50;91.00;;;;;;5006959;28;20325;-74
2023/07/13 09:20:24;;;;;;;6.45;5.40;;;31.50;90.70;;;;;;5014906;28;20360;-73
2023/07/13 09:23:17;;;;;;;5.68;5.07;;;31.00;90.40;;;;;;5016736;28;20338;-73
2023/07/13 09:26:12;;;;;;;5.82;5.25;;;30.80;92.00;;;;;;5016718;28;20218;-76
2023/07/13 09:29:13;;;;;;;7.45;5.50;;;30.30;91.10;;;;;;5010306;28;20315;-75
2023/07/13 09:32:08;;;;;;;5.70;4.97;;;30.10;91.90;;;;;;5029539;28;20227;-75
2023/07/13 09:35:00;;;;;;;7.90;5.60;;;30.10;92.00;;;;;;5024281;28;20225;-74
2023/07/13 09:37:50;;;;;;;5.90;5.30;;;29.70;92.50;;;;;;5017862;28;20237;-75
2023/07/13 09:41:01;;;;;;;6.18;5.57;;;29.80;93.50;;;;;;5008048;28;20228;-74
2023/07/13 09:44:04;;;;;;;6.07;5.47;;;29.40;93.80;;;;;;5020422;28;20221;-74
2023/07/13 09:46:56;;;;;;;6.50;5.90;;;29.10;94.90;;;;;;5014370;28;20213;-74
2023/07/13 09:49:46;;;;;;;6.25;5.30;;;28.60;93.40;;;;;;5023660;28;20225;-74
2023/07/13 09:52:45;;;;;;;11.27;5.05;;;28.20;93.40;;;;;;5010281;28;20921;-74
2023/07/13 09:55:38;;;;;;;5.43;4.80;;;27.10;93.60;;;;;;5004514;28;20840;-72
2023/07/13 09:58:31;;;;;;;5.95;4.47;;;26.70;95.00;;;;;;5021867;28;20582;-72
2023/07/13 10:01:33;;;;;;;4.63;4.15;;;26.50;95.40;;;;;;5020593;28;20417;-72
2023/07/13 10:04:29;;;;;;;5.30;3.90;;;27.50;94.20;;;;;;5016411;28;20224;-73
2023/07/13 10:07:18;;;;;;;4.88;4.22;;;27.80;93.50;;;;;;5004831;28;20248;-73
2023/07/13 10:10:22;;;;;;;6.30;4.25;;;26.90;93.70;;;;;;5019897;28;20315;-76
2023/07/13 10:13:28;;;;;;;6.20;4.55;;;26.00;94.50;;;;;;5011889;28;20707;-74
2023/07/13 10:16:18;;;;;;;5.63;3.67;;;25.70;96.00;;;;;;5017150;28;20948;-74
2023/07/13 10:19:13;;;;;;;9.98;4.50;;;25.50;96.20;;;;;;5009295;28;20569;-75
2023/07/13 10:22:11;;;;;;;7.47;4.28;;;25.40;96.40;;;;;;5019941;28;20210;-74
2023/07/13 10:25:01;;;;;;;9.32;4.10;;;25.10;96.80;;;;;;5002486;28;20236;-73
2023/07/13 10:27:54;;;;;;;7.05;4.00;;;24.90;97.30;;;;;;5013396;28;20301;-73
2023/07/13 10:30:47;;;;;;;7.47;3.92;;;24.70;97.70;;;;;;5017380;28;20226;-73
2023/07/13 10:33:36;;;;;;;4.43;3.63;;;24.70;98.00;;;;;;5022457;28;20228;-73
2023/07/13 10:36:33;;;;;;;5.75;3.80;;;24.60;98.00;;;;;;5012219;28;20229;-74
2023/07/13 10:39:27;;;;;;;7.90;4.00;;;24.40;98.40;;;;;;5015005;28;20217;-74
2023/07/13 10:42:22;;;;;;;15.48;4.20;;;24.20;99.80;;;;;;5017834;28;20246;-75
2023/07/13 10:45:16;;;;;;;8.50;4.05;;;24.00;99.90;;;;;;5014845;28;20233;-74
2023/07/13 10:48:07;;;;;;;5.38;3.70;;;24.10;99.90;;;;;;5032460;28;20218;-76
2023/07/13 10:51:00;;;;;;;13.07;4.78;;;24.10;99.90;;;;;;5020388;28;20224;-75
2023/07/13 10:54:09;;;;;;;11.55;5.28;;;24.00;99.90;;;;;;5016124;28;20247;-75
2023/07/13 10:57:22;;;;;;;8.70;5.82;;;23.60;99.90;;;;;;5022535;28;20225;-75
2023/07/13 11:00:18;;;;;;;10.18;6.53;;;23.10;99.90;;;;;;5025871;28;20326;-74
2023/07/13 11:03:16;;;;;;;11.75;7.03;;;23.10;99.90;;;;;;5008031;28;20224;-76
2023/07/13 11:06:11;;;;;;;10.05;6.65;;;22.90;99.90;;;;;;5004509;28;20230;-75
2023/07/13 11:09:19;;;;;;;18.15;7.57;;;22.90;99.90;;;;;;5013464;28;20288;-75
2023/07/13 11:12:14;;;;;;;19.10;8.55;;;22.70;99.90;;;;;;5017348;28;20695;-75
2023/07/13 11:15:11;;;;;;;32.70;13.20;;;22.70;99.90;;;;;;4993299;28;20230;-76
2023/07/13 11:18:14;;;;;;;23.50;11.77;;;22.20;99.90;;;;;;5022910;28;20312;-75
2023/07/13 11:21:17;;;;;;;22.52;11.95;;;22.70;99.90;;;;;;5021932;28;20279;-73
2023/07/13 11:24:19;;;;;;;20.45;12.23;;;22.70;99.90;;;;;;5015232;28;20229;-74
2023/07/13 11:27:24;;;;;;;14.77;10.30;;;22.50;99.90;;;;;;5010825;28;20757;-74
2023/07/13 11:30:35;;;;;;;18.13;12.25;;;22.20;99.90;;;;;;5022905;28;20711;-73
2023/07/13 11:33:30;;;;;;;30.23;14.75;;;22.30;99.90;;;;;;4999389;28;20248;-71
2023/07/13 11:36:22;;;;;;;25.65;16.80;;;22.10;99.90;;;;;;5003235;28;20298;-73
2023/07/13 11:39:31;;;;;;;22.42;16.67;;;22.60;99.90;;;;;;4999498;28;20355;-73
2023/07/13 11:42:21;;;;;;;30.55;21.00;;;21.80;99.90;;;;;;5008736;28;20532;-73
2023/07/13 11:45:23;;;;;;;40.60;24.85;;;22.20;99.90;;;;;;5001619;28;20888;-74
2023/07/13 11:48:27;;;;;;;40.47;25.25;;;22.30;99.90;;;;;;5006315;28;20233;-70
2023/07/13 11:51:22;;;;;;;37.83;22.23;;;22.30;99.90;;;;;;5016676;28;20222;-73
2023/07/13 11:54:22;;;;;;;29.05;19.73;;;22.40;99.90;;;;;;5005200;28;20222;-73
2023/07/13 11:57:26;;;;;;;28.90;19.10;;;22.40;99.90;;;;;;5002775;28;20321;-74
2023/07/13 12:00:18;;;;;;;29.58;18.85;;;22.60;99.90;;;;;;4996918;28;20222;-72
2023/07/13 12:03:07;;;;;;;29.95;19.10;;;22.50;99.90;;;;;;5003580;28;20225;-74
2023/07/13 12:06:00;;;;;;;29.95;18.83;;;22.40;99.90;;;;;;5003589;28;20441;-73
2023/07/13 12:08:49;;;;;;;31.73;18.40;;;22.40;99.90;;;;;;5013303;28;20257;-73
2023/07/13 12:11:38;;;;;;;32.78;17.83;;;22.70;99.90;;;;;;5016690;28;20222;-73
2023/07/13 12:14:29;;;;;;;24.70;15.30;;;22.60;99.90;;;;;;5022770;28;20636;-73
2023/07/13 12:17:22;;;;;;;19.85;14.50;;;22.60;99.90;;;;;;5005112;28;20260;-75
2023/07/13 12:20:25;;;;;;;18.42;13.25;;;22.90;99.90;;;;;;5020453;28;20329;-73
2023/07/13 12:23:25;;;;;;;20.17;14.15;;;22.70;99.90;;;;;;5004119;28;20228;-73
2023/07/13 12:26:14;;;;;;;17.95;13.57;;;22.90;99.90;;;;;;5010840;28;20240;-73
2023/07/13 12:29:08;;;;;;;17.05;12.73;;;22.80;99.90;;;;;;5008004;28;20699;-74
2023/07/13 12:31:57;;;;;;;18.30;13.27;;;22.70;99.90;;;;;;5002561;28;20224;-74
2023/07/13 12:34:56;;;;;;;17.52;12.32;;;22.70;99.90;;;;;;5005454;28;20244;-73
2023/07/13 12:37:47;;;;;;;14.15;10.73;;;22.60;99.90;;;;;;5023853;28;20221;-74
2023/07/13 12:40:37;;;;;;;19.45;11.43;;;22.20;99.90;;;;;;5016763;28;20255;-74
2023/07/13 12:43:38;;;;;;;16.40;12.77;;;22.30;99.90;;;;;;5015523;28;20241;-75
2023/07/13 12:46:29;;;;;;;19.05;12.73;;;22.20;99.90;;;;;;5016342;28;20469;-72
2023/07/13 12:49:22;;;;;;;17.38;12.25;;;22.30;99.90;;;;;;5020491;28;20308;-74
2023/07/13 12:52:16;;;;;;;16.45;13.35;;;21.70;99.90;;;;;;5003056;28;20222;-75
2023/07/13 12:55:14;;;;;;;17.50;13.13;;;21.60;99.90;;;;;;5016798;28;20685;-73
2023/07/13 12:58:08;;;;;;;15.77;11.95;;;21.60;99.90;;;;;;5021353;28;20979;-74
2023/07/13 13:00:59;;;;;;;16.33;13.27;;;21.40;99.90;;;;;;4994007;28;20301;-75
2023/07/13 13:03:52;;;;;;;20.60;15.07;;;21.50;99.90;;;;;;5019461;28;20229;-74
2023/07/13 13:06:43;;;;;;;16.77;13.30;;;21.60;99.90;;;;;;5020345;28;20288;-75
2023/07/13 13:09:32;;;;;;;21.50;13.55;;;21.60;99.90;;;;;;5014236;28;20221;-75
2023/07/13 13:12:21;;;;;;;15.38;12.75;;;21.50;99.90;;;;;;5008191;28;20232;-75
2023/07/13 13:15:12;;;;;;;16.90;12.80;;;21.50;99.90;;;;;;5012379;28;20229;-74
2023/07/13 13:18:01;;;;;;;16.30;12.45;;;21.50;99.90;;;;;;5020534;28;20241;-74
2023/07/13 13:20:52;;;;;;;13.30;11.95;;;21.50;99.90;;;;;;4997970;28;20631;-73
2023/07/13 13:23:40;;;;;;;15.18;12.25;;;21.40;99.90;;;;;;4998179;28;20231;-73
2023/07/13 13:26:30;;;;;;;15.05;12.70;;;21.60;99.90;;;;;;5006251;28;20237;-74
2023/07/13 13:29:21;;;;;;;16.92;12.30;;;21.70;99.90;;;;;;5013660;28;20246;-75
2023/07/13 13:32:13;;;;;;;20.48;13.60;;;21.60;99.90;;;;;;5021923;28;20282;-73
2023/07/13 13:35:02;;;;;;;18.13;12.60;;;21.70;99.90;;;;;;5006415;28;20229;-75
2023/07/13 13:37:51;;;;;;;15.18;12.00;;;21.80;99.90;;;;;;5015959;28;20288;-71
2023/07/13 13:40:40;;;;;;;20.80;12.48;;;21.60;99.90;;;;;;5005768;28;20367;-73
2023/07/13 13:43:29;;;;;;;15.18;11.82;;;21.50;99.90;;;;;;4997201;28;20234;-71
2023/07/13 13:46:20;;;;;;;16.17;12.50;;;21.60;99.90;;;;;;5017346;28;20232;-76
2023/07/13 13:49:15;;;;;;;16.77;13.13;;;21.60;99.90;;;;;;4998034;28;20324;-73
2023/07/13 13:52:05;;;;;;;17.92;12.80;;;21.60;99.90;;;;;;5010913;28;20773;-75
2023/07/13 13:54:56;;;;;;;17.35;12.45;;;21.70;99.90;;;;;;5013654;28;20229;-74
2023/07/13 13:57:44;;;;;;;15.70;13.80;;;21.60;99.90;;;;;;4986698;28;20234;-74
2023/07/13 14:00:34;;;;;;;18.40;12.35;;;21.80;99.90;;;;;;5011647;28;20233;-73
2023/07/13 14:03:23;;;;;;;16.45;12.75;;;21.80;99.90;;;;;;5004729;28;20229;-73
2023/07/13 14:06:14;;;;;;;17.63;13.05;;;21.90;99.90;;;;;;5001794;28;20753;-74
2023/07/13 14:09:06;;;;;;;16.23;12.88;;;21.80;99.90;;;;;;5015348;28;20632;-75
2023/07/13 14:11:57;;;;;;;18.40;13.77;;;21.80;99.90;;;;;;5013416;28;20673;-71
2023/07/13 14:14:46;;;;;;;16.48;13.63;;;21.60;99.90;;;;;;5014198;28;20730;-74
2023/07/13 14:17:35;;;;;;;16.75;13.40;;;21.60;99.90;;;;;;5007709;28;20255;-74
2023/07/13 14:20:31;;;;;;;19.02;14.07;;;21.70;99.90;;;;;;5004098;28;20222;-73
2023/07/13 14:23:21;;;;;;;17.33;14.13;;;21.90;99.90;;;;;;5005733;28;20261;-73
2023/07/13 14:26:13;;;;;;;15.63;13.45;;;21.90;99.90;;;;;;5017024;28;20245;-73
2023/07/13 14:29:03;;;;;;;14.45;12.85;;;22.00;99.90;;;;;;5018165;28;20222;-73
2023/07/13 14:31:52;;;;;;;13.52;11.57;;;22.10;99.90;;;;;;5021989;28;20226;-72
2023/07/13 14:34:42;;;;;;;15.10;11.35;;;21.90;99.90;;;;;;5001961;28;20240;-72
2023/07/13 14:37:31;;;;;;;12.05;10.75;;;21.90;99.90;;;;;;5005109;28;20226;-73
2023/07/13 14:40:29;;;;;;;12.95;11.43;;;21.90;99.90;;;;;;5009770;28;20520;-73